createdAt,value
2019-03-01T00:00:20.430Z,75.94
2019-03-01T00:02:50.410Z,76.30
2019-03-01T00:05:43.626Z,75.91
2019-03-01T00:08:18.957Z,76.22
2019-03-01T00:11:41.984Z,76.14
2019-03-01T00:14:40.727Z,76.12
2019-03-01T00:17:31.358Z,75.65
2019-03-01T00:20:36.128Z,75.68
2019-03-01T00:23:28.454Z,75.84
2019-03-01T00:26:31.935Z,75.82
2019-03-01T00:29:14.650Z,75.78
2019-03-01T00:32:32.305Z,75.86
2019-03-01T00:35:51.428Z,75.81
2019-03-01T00:39:09.005Z,75.60
2019-03-01T00:42:04.624Z,75.41
2019-03-01T00:44:42.101Z,75.41
2019-03-01T00:47:12.071Z,75.38
2019-03-01T00:49:42.567Z,75.18
2019-03-01T00:52:12.454Z,75.23
2019-03-01T00:54:42.445Z,75.33
2019-03-01T00:57:12.341Z,75.36
2019-03-01T00:59:42.234Z,75.25
2019-03-01T01:02:12.199Z,75.19
2019-03-01T01:04:42.247Z,75.13
2019-03-01T01:07:12.731Z,75.13
2019-03-01T01:09:42.609Z,75.05
2019-03-01T01:12:12.938Z,75.11
2019-03-01T01:14:42.873Z,75.20
2019-03-01T01:17:13.168Z,75.51
2019-03-01T01:19:43.265Z,75.98
2019-03-01T01:22:13.064Z,76.30
2019-03-01T01:24:42.829Z,76.29
2019-03-01T01:27:12.767Z,76.32
2019-03-01T01:29:42.605Z,76.40
2019-03-01T01:32:12.370Z,76.42
2019-03-01T01:34:42.299Z,76.45
2019-03-01T01:37:12.277Z,76.61
2019-03-01T01:39:42.166Z,76.78
2019-03-01T01:42:11.886Z,77.09
2019-03-01T01:44:41.919Z,76.99
2019-03-01T01:47:12.075Z,76.95
2019-03-01T01:49:41.752Z,76.90
2019-03-01T01:52:11.474Z,76.93
2019-03-01T01:54:41.345Z,76.80
2019-03-01T01:57:11.254Z,76.92
2019-03-01T01:59:40.997Z,77.17
2019-03-01T02:02:11.038Z,77.10
2019-03-01T02:04:41.068Z,77.04
2019-03-01T02:07:10.913Z,77.13
2019-03-01T02:09:40.669Z,77.23
2019-03-01T02:12:11.096Z,77.42
2019-03-01T02:14:40.918Z,77.49
2019-03-01T02:17:10.918Z,77.35
2019-03-01T02:19:40.790Z,77.61
2019-03-01T02:22:10.925Z,78.13
2019-03-01T02:24:40.832Z,78.01
2019-03-01T02:27:30.505Z,78.07
2019-03-01T02:30:01.685Z,78.33
2019-03-01T02:32:37.201Z,78.34
2019-03-01T02:35:09.344Z,78.57
2019-03-01T02:37:39.090Z,78.49
2019-03-01T02:40:10.278Z,78.34
2019-03-01T02:42:40.403Z,78.33
2019-03-01T02:45:12.546Z,78.39
2019-03-01T02:47:42.666Z,78.57
2019-03-01T02:50:12.564Z,78.88
2019-03-01T02:52:42.919Z,78.66
2019-03-01T02:55:13.951Z,78.72
2019-03-01T02:57:43.820Z,78.98
2019-03-01T03:00:19.109Z,79.10
2019-03-01T03:02:49.198Z,78.98
2019-03-01T03:05:19.326Z,79.08
2019-03-01T03:08:00.451Z,78.85
2019-03-01T03:10:30.722Z,78.97
2019-03-01T03:13:03.423Z,78.62
2019-03-01T03:15:58.790Z,78.92
2019-03-01T03:18:28.748Z,78.95
2019-03-01T03:20:58.888Z,78.86
2019-03-01T03:23:28.930Z,78.84
2019-03-01T03:25:59.426Z,78.90
2019-03-01T03:28:29.452Z,78.76
2019-03-01T03:30:59.383Z,78.70
2019-03-01T03:33:29.399Z,78.71
2019-03-01T03:35:59.663Z,78.67
2019-03-01T03:38:29.863Z,78.82
2019-03-01T03:40:59.917Z,79.20
2019-03-01T03:43:30.048Z,79.42
2019-03-01T03:45:59.929Z,79.84
2019-03-01T03:48:30.468Z,80.10
2019-03-01T03:51:00.982Z,80.00
2019-03-01T03:53:31.460Z,79.71
2019-03-01T03:56:01.526Z,79.62
2019-03-01T03:58:31.693Z,79.84
2019-03-01T04:01:01.907Z,79.86
2019-03-01T04:03:31.829Z,79.86
2019-03-01T04:06:02.103Z,79.83
2019-03-01T04:08:32.989Z,79.77
2019-03-01T04:11:03.411Z,79.90
2019-03-01T04:13:33.433Z,79.87
2019-03-01T04:16:03.504Z,79.94
2019-03-01T04:18:33.558Z,80.03
2019-03-01T04:21:03.494Z,79.98
2019-03-01T04:23:33.386Z,80.05
2019-03-01T04:26:04.280Z,79.89
2019-03-01T04:28:34.220Z,79.85
2019-03-01T04:31:04.623Z,79.55
2019-03-01T04:33:34.947Z,79.47
2019-03-01T04:36:05.128Z,79.27
2019-03-01T04:38:35.153Z,79.02
2019-03-01T04:41:05.176Z,78.89
2019-03-01T04:43:35.195Z,79.01
2019-03-01T04:46:05.019Z,78.98
2019-03-01T04:48:35.079Z,78.87
2019-03-01T04:51:05.172Z,78.70
2019-03-01T04:53:35.293Z,78.50
2019-03-01T04:56:05.390Z,78.37
2019-03-01T04:58:35.477Z,78.31
2019-03-01T05:01:05.683Z,78.22
2019-03-01T05:03:36.584Z,78.05
2019-03-01T05:06:06.555Z,77.97
2019-03-01T05:08:36.480Z,77.42
2019-03-01T05:11:06.524Z,78.06
2019-03-01T05:13:36.653Z,78.04
2019-03-01T05:16:07.074Z,77.96
2019-03-01T05:18:37.256Z,77.64
2019-03-01T05:21:07.656Z,77.52
2019-03-01T05:23:38.015Z,77.46
2019-03-01T05:26:07.884Z,77.43
2019-03-01T05:28:38.482Z,77.20
2019-03-01T05:31:08.483Z,77.04
2019-03-01T05:33:38.497Z,76.72
2019-03-01T05:36:08.725Z,76.69
2019-03-01T05:38:38.721Z,76.50
2019-03-01T05:41:08.966Z,76.32
2019-03-01T05:43:38.913Z,76.17
2019-03-01T05:46:08.597Z,76.17
2019-03-01T05:48:39.843Z,75.91
2019-03-01T05:51:10.518Z,75.53
2019-03-01T05:53:40.548Z,75.29
2019-03-01T05:56:11.047Z,75.00
2019-03-01T05:58:57.465Z,74.74
2019-03-01T06:01:57.652Z,74.46
2019-03-01T06:04:37.551Z,74.19
2019-03-01T06:07:45.526Z,73.92
2019-03-01T06:10:29.339Z,73.75
2019-03-01T06:13:29.830Z,73.66
2019-03-01T06:16:20.127Z,73.53
2019-03-01T06:19:30.720Z,73.46
2019-03-01T06:22:41.563Z,73.61
2019-03-01T06:25:49.543Z,73.71
2019-03-01T06:28:29.635Z,73.70
2019-03-01T06:31:39.785Z,73.58
2019-03-01T06:34:54.089Z,73.80
2019-03-01T06:37:51.935Z,73.58
2019-03-01T06:41:21.954Z,73.40
2019-03-01T06:44:23.307Z,73.05
2019-03-01T06:47:04.094Z,72.88
2019-03-01T06:50:09.015Z,72.63
2019-03-01T06:52:39.567Z,72.15
2019-03-01T06:55:24.023Z,71.45
2019-03-01T06:57:54.398Z,71.25
2019-03-01T07:00:24.868Z,71.18
2019-03-01T07:02:57.742Z,71.13
2019-03-01T07:05:28.028Z,70.80
2019-03-01T07:07:58.265Z,70.45
2019-03-01T07:10:28.889Z,70.39
2019-03-01T07:12:59.830Z,70.21
2019-03-01T07:15:29.624Z,69.67
2019-03-01T07:18:00.068Z,69.51
2019-03-01T07:20:30.630Z,69.17
2019-03-01T07:23:00.540Z,68.95
2019-03-01T07:25:30.623Z,68.99
2019-03-01T07:28:00.724Z,69.29
2019-03-01T07:30:30.870Z,69.73
2019-03-01T07:33:01.117Z,69.85
2019-03-01T07:35:32.134Z,70.12
2019-03-01T07:38:02.636Z,70.74
2019-03-01T07:40:32.652Z,70.92
2019-03-01T07:43:02.404Z,71.09
2019-03-01T07:45:33.300Z,71.10
2019-03-01T07:48:04.453Z,70.89
2019-03-01T07:50:34.640Z,70.64
2019-03-01T07:53:04.870Z,70.62
2019-03-01T07:55:35.075Z,70.76
2019-03-01T07:58:05.255Z,70.90
2019-03-01T08:00:35.417Z,71.07
2019-03-01T08:03:07.437Z,71.17
2019-03-01T08:05:39.432Z,71.17
2019-03-01T08:08:09.501Z,71.02
2019-03-01T08:10:39.888Z,71.06
2019-03-01T08:13:10.267Z,70.82
2019-03-01T08:15:40.892Z,70.97
2019-03-01T08:18:12.803Z,70.78
2019-03-01T08:20:43.213Z,70.47
2019-03-01T08:23:14.433Z,69.91
2019-03-01T08:25:45.212Z,69.40
2019-03-01T08:28:18.507Z,68.55
2019-03-01T08:30:47.413Z,68.40
2019-03-01T08:33:17.709Z,68.26
2019-03-01T08:35:47.921Z,67.90
2019-03-01T08:38:18.228Z,67.74
2019-03-01T08:40:49.888Z,67.29
2019-03-01T08:43:20.837Z,66.61
2019-03-01T08:45:51.827Z,66.10
2019-03-01T08:48:22.214Z,65.48
2019-03-01T08:50:53.212Z,65.18
2019-03-01T08:53:23.371Z,64.66
2019-03-01T08:55:53.755Z,64.13
2019-03-01T08:58:23.960Z,64.17
2019-03-01T09:00:59.631Z,63.80
2019-03-01T09:03:33.103Z,64.09
2019-03-01T09:06:03.395Z,64.06
2019-03-01T09:08:33.894Z,63.90
2019-03-01T09:11:05.550Z,63.37
2019-03-01T09:13:36.444Z,62.93
2019-03-01T09:16:06.493Z,63.18
2019-03-01T09:18:36.931Z,62.72
2019-03-01T09:21:12.320Z,62.09
2019-03-01T09:23:39.701Z,61.51
2019-03-01T09:26:10.042Z,60.83
2019-03-01T09:28:40.412Z,60.68
2019-03-01T09:31:10.432Z,60.60
2019-03-01T09:33:42.975Z,60.61
2019-03-01T09:36:21.581Z,60.96
2019-03-01T09:38:51.654Z,60.93
2019-03-01T09:41:21.840Z,60.56
2019-03-01T09:43:52.242Z,60.34
2019-03-01T09:46:24.802Z,59.89
2019-03-01T09:48:55.186Z,59.06
2019-03-01T09:51:25.561Z,58.67
2019-03-01T09:53:55.952Z,58.75
2019-03-01T09:56:27.451Z,58.91
2019-03-01T09:58:57.580Z,59.00
2019-03-01T10:01:28.557Z,58.52
2019-03-01T10:03:59.330Z,58.13
2019-03-01T10:06:37.787Z,57.97
2019-03-01T10:09:01.506Z,58.33
2019-03-01T10:11:31.721Z,58.57
2019-03-01T10:14:01.575Z,58.56
2019-03-01T10:16:32.141Z,58.42
2019-03-01T10:19:02.238Z,58.29
2019-03-01T10:21:32.475Z,58.32
2019-03-01T10:24:02.545Z,58.36
2019-03-01T10:26:32.506Z,58.54
2019-03-01T10:29:02.830Z,58.89
2019-03-01T10:31:33.694Z,58.67
2019-03-01T10:34:03.824Z,58.40
2019-03-01T10:36:34.418Z,58.44
2019-03-01T10:39:12.739Z,58.11
2019-03-01T10:41:42.990Z,57.98
2019-03-01T10:44:13.102Z,57.62
2019-03-01T10:46:43.302Z,57.62
2019-03-01T10:49:13.260Z,57.72
2019-03-01T10:51:43.272Z,58.02
2019-03-01T10:54:13.267Z,57.98
2019-03-01T10:56:43.948Z,58.39
2019-03-01T10:59:14.002Z,58.58
2019-03-01T11:01:44.094Z,58.71
2019-03-01T11:04:13.890Z,59.38
2019-03-01T11:06:43.857Z,59.91
2019-03-01T11:09:14.017Z,60.79
2019-03-01T11:11:44.209Z,61.33
2019-03-01T11:14:14.371Z,61.54
2019-03-01T11:16:44.485Z,61.57
2019-03-01T11:19:14.758Z,61.81
2019-03-01T11:21:45.039Z,61.71
2019-03-01T11:24:15.164Z,61.29
2019-03-01T11:26:45.520Z,61.95
2019-03-01T11:29:15.773Z,62.99
2019-03-01T11:31:46.004Z,64.38
2019-03-01T11:34:16.242Z,65.80
2019-03-01T11:36:46.465Z,66.69
2019-03-01T11:39:16.969Z,67.19
2019-03-01T11:41:47.010Z,67.60
2019-03-01T11:44:17.737Z,67.48
2019-03-01T11:46:47.827Z,67.02
2019-03-01T11:49:18.036Z,66.73
2019-03-01T11:51:48.225Z,67.51
2019-03-01T11:54:18.449Z,68.34
2019-03-01T11:56:48.799Z,68.45
2019-03-01T11:59:18.923Z,68.22
2019-03-01T12:01:49.204Z,68.22
2019-03-01T12:04:19.434Z,68.05
2019-03-01T12:06:49.454Z,68.32
2019-03-01T12:09:22.574Z,68.72
2019-03-01T12:11:59.421Z,68.83
2019-03-01T12:14:30.288Z,68.89
2019-03-01T12:17:00.536Z,68.88
2019-03-01T12:19:30.650Z,68.80
2019-03-01T12:22:16.766Z,68.79
2019-03-01T12:24:36.279Z,68.58
2019-03-01T12:27:08.914Z,68.63
2019-03-01T12:29:41.850Z,68.42
2019-03-01T12:32:12.445Z,68.07
2019-03-01T12:34:42.747Z,67.67
2019-03-01T12:37:12.763Z,67.47
2019-03-01T12:39:42.823Z,67.46
2019-03-01T12:42:13.120Z,67.30
2019-03-01T12:44:43.835Z,67.35
2019-03-01T12:47:13.733Z,67.72
2019-03-01T12:49:44.034Z,67.74
2019-03-01T12:52:14.055Z,67.69
2019-03-01T12:54:44.561Z,67.14
2019-03-01T12:57:15.871Z,66.87
2019-03-01T12:59:45.990Z,67.04
2019-03-01T13:02:15.904Z,66.84
2019-03-01T13:04:49.852Z,66.73
2019-03-01T13:07:19.878Z,66.54
2019-03-01T13:09:50.575Z,66.39
2019-03-01T13:12:22.362Z,66.36
2019-03-01T13:14:52.893Z,66.00
2019-03-01T13:17:23.448Z,65.56
2019-03-01T13:19:53.938Z,65.54
2019-03-01T13:22:24.823Z,65.46
2019-03-01T13:24:57.104Z,64.63
2019-03-01T13:27:27.357Z,64.64
2019-03-01T13:29:58.764Z,64.67
2019-03-01T13:32:30.335Z,64.34
2019-03-01T13:35:00.665Z,64.13
2019-03-01T13:37:31.357Z,64.33
2019-03-01T13:40:01.456Z,64.35
2019-03-01T13:42:31.721Z,64.45
2019-03-01T13:45:01.704Z,64.49
2019-03-01T13:47:32.029Z,64.52
2019-03-01T13:50:06.805Z,64.76
2019-03-01T13:52:57.233Z,65.11
2019-03-01T13:56:10.676Z,65.58
2019-03-01T13:59:06.949Z,65.25
2019-03-01T14:01:52.469Z,65.02
2019-03-01T14:04:24.524Z,65.36
2019-03-01T14:07:16.521Z,65.19
2019-03-01T14:09:47.309Z,65.59
2019-03-01T14:12:20.797Z,67.47
2019-03-01T14:14:51.192Z,69.67
2019-03-01T14:17:26.500Z,71.25
2019-03-01T14:19:57.753Z,73.45
2019-03-01T14:22:28.448Z,74.15
2019-03-01T14:25:02.467Z,75.22
2019-03-01T14:27:32.364Z,77.21
2019-03-01T14:30:03.019Z,76.22
2019-03-01T14:32:33.352Z,76.95
2019-03-01T14:35:05.268Z,76.97
2019-03-01T14:37:38.114Z,77.61
2019-03-01T14:40:10.369Z,77.83
2019-03-01T14:42:47.457Z,78.09
2019-03-01T14:45:21.034Z,78.26
2019-03-01T14:47:52.388Z,78.69
2019-03-01T14:50:24.051Z,78.25
2019-03-01T14:52:58.424Z,78.16
2019-03-01T14:55:36.087Z,78.40
2019-03-01T14:58:13.380Z,78.36
2019-03-01T15:00:59.327Z,78.23
2019-03-01T15:03:34.462Z,78.30
2019-03-01T15:06:09.343Z,78.39
2019-03-01T15:08:45.181Z,78.62
2019-03-01T15:11:19.125Z,78.66
2019-03-01T15:13:51.309Z,78.78
2019-03-01T15:16:23.664Z,79.00
2019-03-01T15:18:55.667Z,79.09
2019-03-01T15:21:30.445Z,79.65
2019-03-01T15:24:01.520Z,80.05
2019-03-01T15:26:35.679Z,79.61
2019-03-01T15:29:07.278Z,79.58
2019-03-01T15:31:40.106Z,78.93
2019-03-01T15:34:12.041Z,78.64
2019-03-01T15:36:59.455Z,78.91
2019-03-01T15:39:30.718Z,78.35
2019-03-01T15:42:03.065Z,78.08
2019-03-01T15:44:36.631Z,77.39
2019-03-01T15:47:07.830Z,77.10
2019-03-01T15:49:38.621Z,77.40
2019-03-01T15:52:13.675Z,76.64
2019-03-01T15:54:45.294Z,77.38
2019-03-01T15:57:21.757Z,76.89
2019-03-01T15:59:50.874Z,76.46
2019-03-01T16:02:25.536Z,76.97
2019-03-01T16:04:57.111Z,76.88
2019-03-01T16:10:21.965Z,76.52
2019-03-01T16:12:53.568Z,75.84
2019-03-01T16:15:24.417Z,74.98
2019-03-01T16:18:01.116Z,75.04
2019-03-01T16:20:33.706Z,75.66
2019-03-01T16:23:27.449Z,74.98
2019-03-01T16:25:59.374Z,75.86
2019-03-01T16:28:31.146Z,76.37
2019-03-01T16:31:02.915Z,76.32
2019-03-01T16:33:36.616Z,75.86
2019-03-01T16:36:15.141Z,76.54
2019-03-01T16:38:48.734Z,76.83
2019-03-01T16:41:18.184Z,76.27
2019-03-01T16:43:48.699Z,76.64
2019-03-01T16:46:19.259Z,76.75
2019-03-01T16:48:52.279Z,77.23
2019-03-01T16:51:24.095Z,76.52
2019-03-01T16:53:57.280Z,76.74
2019-03-01T16:56:28.764Z,77.04
2019-03-01T16:59:10.454Z,76.74
2019-03-01T17:01:41.414Z,76.21
2019-03-01T17:04:13.023Z,77.24
2019-03-01T17:06:49.293Z,77.21
2019-03-01T17:09:19.071Z,76.51
2019-03-01T17:11:49.342Z,77.15
2019-03-01T17:14:19.762Z,76.79
2019-03-01T17:16:59.604Z,76.86
2019-03-01T17:19:28.921Z,77.23
2019-03-01T17:21:59.600Z,77.36
2019-03-01T17:24:30.235Z,76.60
2019-03-01T17:27:02.068Z,77.25
2019-03-01T17:29:35.745Z,76.78
2019-03-01T17:32:05.809Z,76.15
2019-03-01T17:34:36.463Z,79.43
2019-03-01T17:37:07.779Z,79.44
2019-03-01T17:39:38.191Z,76.48
2019-03-01T17:42:08.280Z,75.40
2019-03-01T17:44:41.421Z,76.01
2019-03-01T17:47:10.931Z,76.53
2019-03-01T17:49:41.097Z,75.82
2019-03-01T17:52:11.466Z,76.40
2019-03-01T17:54:41.892Z,76.55
2019-03-01T17:57:11.800Z,76.82
2019-03-01T17:59:44.610Z,75.62
2019-03-01T18:02:15.739Z,75.39
2019-03-01T18:04:46.086Z,76.17
2019-03-01T18:07:16.367Z,75.72
2019-03-01T18:09:47.293Z,75.85
2019-03-01T18:12:20.590Z,73.62
2019-03-01T18:14:50.886Z,75.15
2019-03-01T18:17:21.615Z,74.12
2019-03-01T18:19:52.611Z,75.01
2019-03-01T18:22:26.355Z,74.58
2019-03-01T18:24:55.666Z,74.05
2019-03-01T18:27:26.157Z,72.87
2019-03-01T18:29:57.338Z,74.32
2019-03-01T18:32:27.443Z,73.53
2019-03-01T18:34:58.293Z,73.89
2019-03-01T18:37:28.548Z,74.35
2019-03-01T18:39:58.760Z,73.78
2019-03-01T18:42:28.949Z,73.45
2019-03-01T18:44:59.241Z,72.59
2019-03-01T18:47:30.701Z,72.86
2019-03-01T18:50:01.845Z,72.85
2019-03-01T18:52:32.240Z,73.43
2019-03-01T18:55:03.063Z,73.92
2019-03-01T18:57:35.461Z,73.79
2019-03-01T19:00:14.212Z,74.33
2019-03-01T19:02:45.081Z,73.24
2019-03-01T19:05:15.586Z,73.45
2019-03-01T19:07:46.256Z,73.91
2019-03-01T19:10:16.546Z,72.34
2019-03-01T19:12:48.608Z,73.67
2019-03-01T19:15:18.763Z,73.61
2019-03-01T19:17:49.178Z,73.37
2019-03-01T19:20:21.519Z,72.13
2019-03-01T19:22:51.571Z,72.55
2019-03-01T19:25:25.261Z,72.45
2019-03-01T19:27:54.818Z,72.54
2019-03-01T19:30:25.247Z,72.85
2019-03-01T19:32:55.136Z,72.35
2019-03-01T19:35:29.783Z,72.21
2019-03-01T19:37:57.770Z,72.18
2019-03-01T19:40:28.555Z,71.84
2019-03-01T19:42:58.968Z,71.95
2019-03-01T19:45:29.287Z,71.07
2019-03-01T19:48:03.222Z,72.02
2019-03-01T19:50:31.831Z,72.12
2019-03-01T19:53:02.429Z,72.02
2019-03-01T19:55:32.794Z,71.65
2019-03-01T19:58:03.608Z,71.77
2019-03-01T20:00:34.021Z,71.58
2019-03-01T20:03:06.571Z,71.98
2019-03-01T20:05:36.471Z,71.45
2019-03-01T20:08:06.838Z,72.01
2019-03-01T20:10:37.045Z,71.67
2019-03-01T20:13:08.105Z,72.85
2019-03-01T20:15:38.370Z,72.40
2019-03-01T20:18:09.922Z,72.19
2019-03-01T20:20:40.727Z,72.02
2019-03-01T20:23:11.046Z,72.18
2019-03-01T20:25:41.391Z,71.98
2019-03-01T20:28:15.211Z,72.41
2019-03-01T20:30:44.907Z,72.33
2019-03-01T20:33:15.414Z,72.45
2019-03-01T20:35:45.422Z,72.14
2019-03-01T20:38:15.346Z,72.40
2019-03-01T20:40:45.759Z,72.55
2019-03-01T20:43:15.822Z,72.86
2019-03-01T20:45:46.509Z,72.77
2019-03-01T20:48:16.798Z,72.08
2019-03-01T20:50:47.595Z,72.19
2019-03-01T20:53:20.736Z,71.75
2019-03-01T20:55:51.090Z,72.41
2019-03-01T20:58:22.197Z,71.35
2019-03-01T21:00:52.548Z,71.19
2019-03-01T21:03:24.960Z,72.24
2019-03-01T21:05:55.875Z,71.85
2019-03-01T21:08:28.974Z,72.08
2019-03-01T21:10:58.532Z,72.11
2019-03-01T21:13:28.465Z,71.30
2019-03-01T21:15:58.756Z,71.37
2019-03-01T21:18:30.815Z,72.37
2019-03-01T21:21:00.844Z,71.78
2019-03-01T21:23:30.883Z,72.07
2019-03-01T21:26:00.717Z,71.67
2019-03-01T21:28:33.736Z,72.28
2019-03-01T21:31:02.704Z,72.23
2019-03-01T21:33:32.918Z,72.02
2019-03-01T21:36:03.603Z,71.04
2019-03-01T21:38:33.627Z,71.98
2019-03-01T21:41:06.279Z,71.99
2019-03-01T21:43:36.868Z,71.36
2019-03-01T21:46:08.593Z,70.85
2019-03-01T21:48:38.854Z,70.53
2019-03-01T21:51:09.511Z,71.34
2019-03-01T21:53:39.923Z,71.59
2019-03-01T21:56:11.163Z,71.30
2019-03-01T21:58:41.991Z,70.90
2019-03-01T22:01:13.252Z,71.60
2019-03-01T22:03:43.090Z,71.48
2019-03-01T22:06:13.127Z,71.47
2019-03-01T22:08:44.830Z,71.27
2019-03-01T22:11:15.305Z,71.77
2019-03-01T22:13:45.289Z,71.99
2019-03-01T22:16:15.403Z,71.81
2019-03-01T22:18:45.682Z,71.94
2019-03-01T22:21:16.551Z,72.15
2019-03-01T22:23:51.440Z,72.18
2019-03-01T22:26:20.378Z,72.03
2019-03-01T22:35:50.298Z,70.73
2019-03-01T22:38:20.742Z,71.00
2019-03-01T22:40:50.856Z,71.57
2019-03-01T22:43:22.505Z,69.30
2019-03-01T22:45:52.815Z,70.96
2019-03-01T22:48:23.131Z,70.17
2019-03-01T22:50:53.249Z,69.71
2019-03-01T22:53:23.507Z,69.75
2019-03-01T22:55:53.445Z,70.04
2019-03-01T22:58:24.208Z,69.02
2019-03-01T23:01:13.322Z,68.88
2019-03-01T23:03:51.530Z,68.83
2019-03-01T23:06:20.633Z,68.44
2019-03-01T23:08:50.578Z,68.69
2019-03-01T23:11:20.438Z,68.38
2019-03-01T23:13:52.696Z,68.59
2019-03-01T23:16:22.381Z,67.85
2019-03-01T23:18:56.692Z,68.59
2019-03-01T23:21:24.818Z,68.86
2019-03-01T23:23:55.765Z,68.23
2019-03-01T23:26:26.996Z,68.38
2019-03-01T23:28:57.194Z,67.53
2019-03-01T23:31:27.323Z,68.63
2019-03-01T23:33:57.277Z,68.43
2019-03-01T23:36:28.535Z,68.41
2019-03-01T23:38:59.280Z,68.37
2019-03-01T23:41:29.378Z,67.93
2019-03-01T23:43:59.202Z,67.95
2019-03-01T23:46:29.538Z,68.69
2019-03-01T23:49:05.993Z,68.68
2019-03-01T23:51:31.387Z,68.87
2019-03-01T23:54:01.515Z,68.95
2019-03-01T23:56:31.547Z,68.36
2019-03-01T23:59:01.703Z,68.40
